Time;durP1;ratioP1;P1;durP2;ratioP2;P2;SDS_P1;SDS_P2;PMS_P1;PMS_P2;Temp;Humidity;BMP_temperature;BMP_pressure;BME280_temperature;BME280_humidity;BME280_pressure;Samples;Min_cycle;Max_cycle;Signal;HPM_P1;HPM_P2
2021/03/31 00:00:48;;;;;;;5.75;3.6;;;;;;;5.47;47.7666;96149.64;;;;
2021/03/31 00:01:48;;;;;;;5.75;3.6;;;;;;;5.47;47.7666;96149.64;;;;
2021/03/31 00:02:49;;;;;;;5.75;3.6;;;;;;;5.47;47.7666;96149.64;;;;
2021/03/31 00:03:51;;;;;;;5.75;3.6;;;;;;;5.47;47.7666;96149.64;;;;
2021/03/31 00:04:52;;;;;;;5.75;3.6;;;;;;;5.47;47.7666;96149.64;;;;
2021/03/31 00:05:53;;;;;;;5.75;3.6;;;;;;;5.47;47.7666;96149.64;;;;
2021/03/31 00:06:53;;;;;;;5.75;3.6;;;;;;;5.47;47.7666;96149.64;;;;
2021/03/31 00:07:54;;;;;;;5.75;3.6;;;;;;;5.47;47.7666;96149.64;;;;
2021/03/31 00:08:54;;;;;;;5.75;3.6;;;;;;;5.47;47.7666;96149.64;;;;
2021/03/31 00:09:55;;;;;;;5.75;3.6;;;;;;;5.47;47.7666;96149.64;;;;
2021/03/31 00:10:55;;;;;;;10.6;3.85;;;;;;;5.38;47.87402;96140.02;;;;
2021/03/31 00:11:56;;;;;;;10.6;3.85;;;;;;;5.38;47.87402;96140.02;;;;
2021/03/31 00:12:56;;;;;;;10.6;3.85;;;;;;;5.38;47.87402;96140.02;;;;
2021/03/31 00:13:57;;;;;;;10.6;3.85;;;;;;;5.38;47.87402;96140.02;;;;
2021/03/31 00:14:58;;;;;;;10.6;3.85;;;;;;;5.38;47.87402;96140.02;;;;
2021/03/31 00:15:58;;;;;;;10.6;3.85;;;;;;;5.38;47.87402;96140.02;;;;
2021/03/31 00:16:59;;;;;;;10.6;3.85;;;;;;;5.38;47.87402;96140.02;;;;
2021/03/31 00:17:59;;;;;;;10.6;3.85;;;;;;;5.38;47.87402;96140.02;;;;
2021/03/31 00:19:00;;;;;;;10.6;3.85;;;;;;;5.38;47.87402;96140.02;;;;
2021/03/31 00:20:01;;;;;;;10.6;3.85;;;;;;;5.38;47.87402;96140.02;;;;
2021/03/31 00:21:01;;;;;;;10.6;3.85;;;;;;;5.38;47.87402;96140.02;;;;
2021/03/31 00:22:03;;;;;;;7.4;3.6;;;;;;;5.19;48.09863;96134.67;;;;
2021/03/31 00:23:04;;;;;;;7.4;3.6;;;;;;;5.19;48.09863;96134.67;;;;
2021/03/31 00:24:05;;;;;;;7.4;3.6;;;;;;;5.19;48.09863;96134.67;;;;
2021/03/31 00:25:06;;;;;;;7.4;3.6;;;;;;;5.19;48.09863;96134.67;;;;
2021/03/31 00:26:09;;;;;;;7.4;3.6;;;;;;;5.19;48.09863;96134.67;;;;
2021/03/31 00:27:10;;;;;;;7.4;3.6;;;;;;;5.19;48.09863;96134.67;;;;
2021/03/31 00:28:10;;;;;;;7.4;3.6;;;;;;;5.19;48.09863;96134.67;;;;
2021/03/31 00:29:12;;;;;;;7.4;3.6;;;;;;;5.19;48.09863;96134.67;;;;
2021/03/31 00:30:12;;;;;;;7.4;3.6;;;;;;;5.19;48.09863;96134.67;;;;
2021/03/31 00:31:15;;;;;;;7.4;3.6;;;;;;;5.19;48.09863;96134.67;;;;
2021/03/31 00:32:15;;;;;;;7.1;3.25;;;;;;;5.01;48.46191;96119.87;;;;
2021/03/31 00:33:16;;;;;;;7.1;3.25;;;;;;;5.01;48.46191;96119.87;;;;
2021/03/31 00:34:17;;;;;;;7.1;3.25;;;;;;;5.01;48.46191;96119.87;;;;
2021/03/31 00:35:18;;;;;;;7.1;3.25;;;;;;;5.01;48.46191;96119.87;;;;
2021/03/31 00:36:19;;;;;;;7.1;3.25;;;;;;;5.01;48.46191;96119.87;;;;
2021/03/31 00:37:19;;;;;;;7.1;3.25;;;;;;;5.01;48.46191;96119.87;;;;
2021/03/31 00:38:20;;;;;;;7.1;3.25;;;;;;;5.01;48.46191;96119.87;;;;
2021/03/31 00:39:20;;;;;;;7.1;3.25;;;;;;;5.01;48.46191;96119.87;;;;
2021/03/31 00:40:21;;;;;;;7.1;3.25;;;;;;;5.01;48.46191;96119.87;;;;
2021/03/31 00:41:27;;;;;;;7.1;3.25;;;;;;;5.01;48.46191;96119.87;;;;
2021/03/31 00:42:27;;;;;;;7.1;3.25;;;;;;;5.01;48.46191;96119.87;;;;
2021/03/31 00:43:28;;;;;;;5.900001;3.3;;;;;;;4.85;48.65527;96113.83;;;;
2021/03/31 00:44:28;;;;;;;5.900001;3.3;;;;;;;4.85;48.65527;96113.83;;;;
2021/03/31 00:45:29;;;;;;;5.900001;3.3;;;;;;;4.85;48.65527;96113.83;;;;
2021/03/31 00:46:29;;;;;;;5.900001;3.3;;;;;;;4.85;48.65527;96113.83;;;;
2021/03/31 00:47:30;;;;;;;5.900001;3.3;;;;;;;4.85;48.65527;96113.83;;;;
2021/03/31 00:48:30;;;;;;;5.900001;3.3;;;;;;;4.85;48.65527;96113.83;;;;
2021/03/31 00:49:31;;;;;;;5.900001;3.3;;;;;;;4.85;48.65527;96113.83;;;;
2021/03/31 00:50:32;;;;;;;5.900001;3.3;;;;;;;4.85;48.65527;96113.83;;;;
2021/03/31 00:51:32;;;;;;;5.900001;3.3;;;;;;;4.85;48.65527;96113.83;;;;
2021/03/31 00:52:33;;;;;;;5.900001;3.3;;;;;;;4.85;48.65527;96113.83;;;;
2021/03/31 00:53:34;;;;;;;5.900001;3.3;;;;;;;4.85;48.65527;96113.83;;;;
2021/03/31 00:54:36;;;;;;;5.6;3.6;;;;;;;4.71;48.91797;96120.28;;;;
2021/03/31 00:55:37;;;;;;;5.6;3.6;;;;;;;4.71;48.91797;96120.28;;;;
2021/03/31 00:56:38;;;;;;;5.6;3.6;;;;;;;4.71;48.91797;96120.28;;;;
2021/03/31 00:57:39;;;;;;;5.6;3.6;;;;;;;4.71;48.91797;96120.28;;;;
2021/03/31 00:58:41;;;;;;;5.6;3.6;;;;;;;4.71;48.91797;96120.28;;;;
2021/03/31 00:59:42;;;;;;;5.6;3.6;;;;;;;4.71;48.91797;96120.28;;;;
2021/03/31 01:00:42;;;;;;;5.6;3.6;;;;;;;4.71;48.91797;96120.28;;;;
2021/03/31 01:01:43;;;;;;;5.6;3.6;;;;;;;4.71;48.91797;96120.28;;;;
2021/03/31 01:02:44;;;;;;;5.6;3.6;;;;;;;4.71;48.91797;96120.28;;;;
2021/03/31 01:03:45;;;;;;;5.6;3.6;;;;;;;4.71;48.91797;96120.28;;;;
2021/03/31 01:04:46;;;;;;;6.1;3;;;;;;;4.67;49.11426;96114.15;;;;
2021/03/31 01:05:46;;;;;;;6.1;3;;;;;;;4.67;49.11426;96114.15;;;;
2021/03/31 01:06:47;;;;;;;6.1;3;;;;;;;4.67;49.11426;96114.15;;;;
2021/03/31 01:07:47;;;;;;;6.1;3;;;;;;;4.67;49.11426;96114.15;;;;
2021/03/31 01:08:49;;;;;;;6.1;3;;;;;;;4.67;49.11426;96114.15;;;;
2021/03/31 01:09:49;;;;;;;6.1;3;;;;;;;4.67;49.11426;96114.15;;;;
2021/03/31 01:10:51;;;;;;;6.1;3;;;;;;;4.67;49.11426;96114.15;;;;
2021/03/31 01:11:58;;;;;;;6.1;3;;;;;;;4.67;49.11426;96114.15;;;;
2021/03/31 01:13:09;;;;;;;6.1;3;;;;;;;4.67;49.11426;96114.15;;;;
2021/03/31 01:14:50;;;;;;;6.1;3;;;;;;;4.67;49.11426;96114.15;;;;
2021/03/31 01:16:17;;;;;;;5.450001;3.25;;;;;;;4.54;49.38672;96105.47;;;;
2021/03/31 01:17:27;;;;;;;5.450001;3.25;;;;;;;4.54;49.38672;96105.47;;;;
2021/03/31 01:18:34;;;;;;;5.450001;3.25;;;;;;;4.54;49.38672;96105.47;;;;
2021/03/31 01:19:42;;;;;;;5.450001;3.25;;;;;;;4.54;49.38672;96105.47;;;;
2021/03/31 01:21:00;;;;;;;5.450001;3.25;;;;;;;4.54;49.38672;96105.47;;;;
2021/03/31 01:22:23;;;;;;;5.450001;3.25;;;;;;;4.54;49.38672;96105.47;;;;
2021/03/31 01:23:46;;;;;;;5.450001;3.25;;;;;;;4.54;49.38672;96105.47;;;;
2021/03/31 01:25:18;;;;;;;5.450001;3.25;;;;;;;4.54;49.38672;96105.47;;;;
2021/03/31 01:26:29;;;;;;;5.299999;3.25;;;;;;;4.49;49.61621;96094.41;;;;
2021/03/31 01:27:35;;;;;;;5.299999;3.25;;;;;;;4.49;49.61621;96094.41;;;;
2021/03/31 01:28:44;;;;;;;5.299999;3.25;;;;;;;4.49;49.61621;96094.41;;;;
2021/03/31 01:29:59;;;;;;;5.299999;3.25;;;;;;;4.49;49.61621;96094.41;;;;
2021/03/31 01:31:18;;;;;;;5.299999;3.25;;;;;;;4.49;49.61621;96094.41;;;;
2021/03/31 01:32:31;;;;;;;5.299999;3.25;;;;;;;4.49;49.61621;96094.41;;;;
2021/03/31 01:33:50;;;;;;;5.299999;3.25;;;;;;;4.49;49.61621;96094.41;;;;
2021/03/31 01:35:07;;;;;;;5.299999;3.25;;;;;;;4.49;49.61621;96094.41;;;;
2021/03/31 01:36:10;;;;;;;5.299999;3.25;;;;;;;4.49;49.61621;96094.41;;;;
2021/03/31 01:37:13;;;;;;;5.699999;3.35;;;;;;;4.43;49.86328;96093.36;;;;
2021/03/31 01:38:21;;;;;;;5.699999;3.35;;;;;;;4.43;49.86328;96093.36;;;;
2021/03/31 01:39:25;;;;;;;5.699999;3.35;;;;;;;4.43;49.86328;96093.36;;;;
2021/03/31 01:40:27;;;;;;;5.699999;3.35;;;;;;;4.43;49.86328;96093.36;;;;
2021/03/31 01:41:29;;;;;;;5.699999;3.35;;;;;;;4.43;49.86328;96093.36;;;;
2021/03/31 01:42:31;;;;;;;5.699999;3.35;;;;;;;4.43;49.86328;96093.36;;;;
2021/03/31 01:43:36;;;;;;;5.699999;3.35;;;;;;;4.43;49.86328;96093.36;;;;
2021/03/31 01:44:37;;;;;;;5.699999;3.35;;;;;;;4.43;49.86328;96093.36;;;;
2021/03/31 01:45:41;;;;;;;5.699999;3.35;;;;;;;4.43;49.86328;96093.36;;;;
2021/03/31 01:46:47;;;;;;;5.699999;3.35;;;;;;;4.43;49.86328;96093.36;;;;
2021/03/31 01:47:52;;;;;;;4.95;3.400001;;;;;;;4.41;49.97754;96091.78;;;;
2021/03/31 01:48:54;;;;;;;4.95;3.400001;;;;;;;4.41;49.97754;96091.78;;;;
2021/03/31 01:49:57;;;;;;;4.95;3.400001;;;;;;;4.41;49.97754;96091.78;;;;
2021/03/31 01:51:00;;;;;;;4.95;3.400001;;;;;;;4.41;49.97754;96091.78;;;;
2021/03/31 01:52:03;;;;;;;4.95;3.400001;;;;;;;4.41;49.97754;96091.78;;;;
2021/03/31 01:53:06;;;;;;;4.95;3.400001;;;;;;;4.41;49.97754;96091.78;;;;
2021/03/31 01:54:08;;;;;;;4.95;3.400001;;;;;;;4.41;49.97754;96091.78;;;;
2021/03/31 01:55:09;;;;;;;4.95;3.400001;;;;;;;4.41;49.97754;96091.78;;;;
2021/03/31 01:56:14;;;;;;;4.95;3.400001;;;;;;;4.41;49.97754;96091.78;;;;
2021/03/31 01:57:17;;;;;;;4.95;3.400001;;;;;;;4.41;49.97754;96091.78;;;;
2021/03/31 01:58:21;;;;;;;7.5;3.4;;;;;;;4.35;50.19336;96083.65;;;;
2021/03/31 01:59:23;;;;;;;7.5;3.4;;;;;;;4.35;50.19336;96083.65;;;;
2021/03/31 02:00:25;;;;;;;7.5;3.4;;;;;;;4.35;50.19336;96083.65;;;;
2021/03/31 02:01:26;;;;;;;7.5;3.4;;;;;;;4.35;50.19336;96083.65;;;;
2021/03/31 02:02:28;;;;;;;7.5;3.4;;;;;;;4.35;50.19336;96083.65;;;;
2021/03/31 02:03:29;;;;;;;7.5;3.4;;;;;;;4.35;50.19336;96083.65;;;;
2021/03/31 02:04:31;;;;;;;7.5;3.4;;;;;;;4.35;50.19336;96083.65;;;;
2021/03/31 02:05:32;;;;;;;7.5;3.4;;;;;;;4.35;50.19336;96083.65;;;;
2021/03/31 02:06:34;;;;;;;7.5;3.4;;;;;;;4.35;50.19336;96083.65;;;;
2021/03/31 02:07:35;;;;;;;7.5;3.4;;;;;;;4.35;50.19336;96083.65;;;;
2021/03/31 02:08:39;;;;;;;4.6;3.2;;;;;;;4.25;50.24609;96072.27;;;;
2021/03/31 02:09:40;;;;;;;4.6;3.2;;;;;;;4.25;50.24609;96072.27;;;;
2021/03/31 02:10:43;;;;;;;4.6;3.2;;;;;;;4.25;50.24609;96072.27;;;;
2021/03/31 02:11:45;;;;;;;4.6;3.2;;;;;;;4.25;50.24609;96072.27;;;;
2021/03/31 02:12:46;;;;;;;4.6;3.2;;;;;;;4.25;50.24609;96072.27;;;;
2021/03/31 02:13:47;;;;;;;4.6;3.2;;;;;;;4.25;50.24609;96072.27;;;;
2021/03/31 02:14:49;;;;;;;4.6;3.2;;;;;;;4.25;50.24609;96072.27;;;;
2021/03/31 02:15:52;;;;;;;4.6;3.2;;;;;;;4.25;50.24609;96072.27;;;;
2021/03/31 02:16:57;;;;;;;4.6;3.2;;;;;;;4.25;50.24609;96072.27;;;;
2021/03/31 02:17:59;;;;;;;4.6;3.2;;;;;;;4.25;50.24609;96072.27;;;;
2021/03/31 02:19:04;;;;;;;3.8;3.05;;;;;;;4.14;50.31738;96075.42;;;;
2021/03/31 02:20:06;;;;;;;3.8;3.05;;;;;;;4.14;50.31738;96075.42;;;;
2021/03/31 02:21:07;;;;;;;3.8;3.05;;;;;;;4.14;50.31738;96075.42;;;;
2021/03/31 02:22:08;;;;;;;3.8;3.05;;;;;;;4.14;50.31738;96075.42;;;;
2021/03/31 02:23:10;;;;;;;3.8;3.05;;;;;;;4.14;50.31738;96075.42;;;;
2021/03/31 02:24:11;;;;;;;3.8;3.05;;;;;;;4.14;50.31738;96075.42;;;;
2021/03/31 02:25:13;;;;;;;3.8;3.05;;;;;;;4.14;50.31738;96075.42;;;;
2021/03/31 02:26:16;;;;;;;3.8;3.05;;;;;;;4.14;50.31738;96075.42;;;;
2021/03/31 02:27:17;;;;;;;3.8;3.05;;;;;;;4.14;50.31738;96075.42;;;;
2021/03/31 02:28:18;;;;;;;3.8;3.05;;;;;;;4.14;50.31738;96075.42;;;;
2021/03/31 02:29:19;;;;;;;3.8;3.05;;;;;;;4.14;50.31738;96075.42;;;;
2021/03/31 02:30:20;;;;;;;4.699999;3.05;;;;;;;3.95;50.84766;96073.14;;;;
2021/03/31 02:31:24;;;;;;;4.699999;3.05;;;;;;;3.95;50.84766;96073.14;;;;
2021/03/31 02:32:25;;;;;;;4.699999;3.05;;;;;;;3.95;50.84766;96073.14;;;;
2021/03/31 02:33:27;;;;;;;4.699999;3.05;;;;;;;3.95;50.84766;96073.14;;;;
2021/03/31 02:34:30;;;;;;;4.699999;3.05;;;;;;;3.95;50.84766;96073.14;;;;
2021/03/31 02:35:31;;;;;;;4.699999;3.05;;;;;;;3.95;50.84766;96073.14;;;;
2021/03/31 02:36:33;;;;;;;4.699999;3.05;;;;;;;3.95;50.84766;96073.14;;;;
2021/03/31 02:37:37;;;;;;;4.699999;3.05;;;;;;;3.95;50.84766;96073.14;;;;
2021/03/31 02:38:40;;;;;;;4.699999;3.05;;;;;;;3.95;50.84766;96073.14;;;;
2021/03/31 02:39:41;;;;;;;4.699999;3.05;;;;;;;3.95;50.84766;96073.14;;;;
2021/03/31 02:40:45;;;;;;;4.099999;2.95;;;;;;;3.81;51.27637;96073.9;;;;
2021/03/31 02:41:48;;;;;;;4.099999;2.95;;;;;;;3.81;51.27637;96073.9;;;;
2021/03/31 02:42:51;;;;;;;4.099999;2.95;;;;;;;3.81;51.27637;96073.9;;;;
2021/03/31 02:43:54;;;;;;;4.099999;2.95;;;;;;;3.81;51.27637;96073.9;;;;
2021/03/31 02:44:57;;;;;;;4.099999;2.95;;;;;;;3.81;51.27637;96073.9;;;;
2021/03/31 02:46:00;;;;;;;4.099999;2.95;;;;;;;3.81;51.27637;96073.9;;;;
2021/03/31 02:47:02;;;;;;;4.099999;2.95;;;;;;;3.81;51.27637;96073.9;;;;
2021/03/31 02:48:05;;;;;;;4.099999;2.95;;;;;;;3.81;51.27637;96073.9;;;;
2021/03/31 02:49:08;;;;;;;4.099999;2.95;;;;;;;3.81;51.27637;96073.9;;;;
2021/03/31 02:50:10;;;;;;;4.099999;2.95;;;;;;;3.81;51.27637;96073.9;;;;
2021/03/31 02:51:14;;;;;;;5;2.65;;;;;;;3.67;51.22754;96062.17;;;;
2021/03/31 02:52:15;;;;;;;5;2.65;;;;;;;3.67;51.22754;96062.17;;;;
2021/03/31 02:53:19;;;;;;;5;2.65;;;;;;;3.67;51.22754;96062.17;;;;
2021/03/31 02:54:20;;;;;;;5;2.65;;;;;;;3.67;51.22754;96062.17;;;;
2021/03/31 02:55:22;;;;;;;5;2.65;;;;;;;3.67;51.22754;96062.17;;;;
2021/03/31 02:56:25;;;;;;;5;2.65;;;;;;;3.67;51.22754;96062.17;;;;
2021/03/31 02:57:27;;;;;;;5;2.65;;;;;;;3.67;51.22754;96062.17;;;;
2021/03/31 02:58:28;;;;;;;5;2.65;;;;;;;3.67;51.22754;96062.17;;;;
2021/03/31 02:59:30;;;;;;;5;2.65;;;;;;;3.67;51.22754;96062.17;;;;
2021/03/31 03:00:31;;;;;;;5;2.65;;;;;;;3.67;51.22754;96062.17;;;;
2021/03/31 03:01:32;;;;;;;5;2.65;;;;;;;3.67;51.22754;96062.17;;;;
2021/03/31 03:02:33;;;;;;;6.7;3.3;;;;;;;3.51;51.37695;96063.2;;;;
2021/03/31 03:03:36;;;;;;;6.7;3.3;;;;;;;3.51;51.37695;96063.2;;;;
2021/03/31 03:04:38;;;;;;;6.7;3.3;;;;;;;3.51;51.37695;96063.2;;;;
2021/03/31 03:05:39;;;;;;;6.7;3.3;;;;;;;3.51;51.37695;96063.2;;;;
2021/03/31 03:06:40;;;;;;;6.7;3.3;;;;;;;3.51;51.37695;96063.2;;;;
2021/03/31 03:07:41;;;;;;;6.7;3.3;;;;;;;3.51;51.37695;96063.2;;;;
2021/03/31 03:08:42;;;;;;;6.7;3.3;;;;;;;3.51;51.37695;96063.2;;;;
2021/03/31 03:09:43;;;;;;;6.7;3.3;;;;;;;3.51;51.37695;96063.2;;;;
2021/03/31 03:10:46;;;;;;;6.7;3.3;;;;;;;3.51;51.37695;96063.2;;;;
2021/03/31 03:11:47;;;;;;;6.7;3.3;;;;;;;3.51;51.37695;96063.2;;;;
2021/03/31 03:12:48;;;;;;;4.349999;2.9;;;;;;;3.36;51.60352;96053.33;;;;
2021/03/31 03:13:53;;;;;;;4.349999;2.9;;;;;;;3.36;51.60352;96053.33;;;;
2021/03/31 03:14:55;;;;;;;4.349999;2.9;;;;;;;3.36;51.60352;96053.33;;;;
2021/03/31 03:15:57;;;;;;;4.349999;2.9;;;;;;;3.36;51.60352;96053.33;;;;
2021/03/31 03:17:00;;;;;;;4.349999;2.9;;;;;;;3.36;51.60352;96053.33;;;;
2021/03/31 03:18:00;;;;;;;4.349999;2.9;;;;;;;3.36;51.60352;96053.33;;;;
2021/03/31 03:19:01;;;;;;;4.349999;2.9;;;;;;;3.36;51.60352;96053.33;;;;
2021/03/31 03:20:02;;;;;;;4.349999;2.9;;;;;;;3.36;51.60352;96053.33;;;;
2021/03/31 03:21:05;;;;;;;4.349999;2.9;;;;;;;3.36;51.60352;96053.33;;;;
2021/03/31 03:22:06;;;;;;;4.349999;2.9;;;;;;;3.36;51.60352;96053.33;;;;
2021/03/31 03:23:07;;;;;;;4.05;2.85;;;;;;;3.31;51.93652;96046.73;;;;
2021/03/31 03:24:09;;;;;;;4.05;2.85;;;;;;;3.31;51.93652;96046.73;;;;
2021/03/31 03:25:12;;;;;;;4.05;2.85;;;;;;;3.31;51.93652;96046.73;;;;
2021/03/31 03:26:15;;;;;;;4.05;2.85;;;;;;;3.31;51.93652;96046.73;;;;
2021/03/31 03:27:17;;;;;;;4.05;2.85;;;;;;;3.31;51.93652;96046.73;;;;
2021/03/31 03:28:19;;;;;;;4.05;2.85;;;;;;;3.31;51.93652;96046.73;;;;
2021/03/31 03:29:22;;;;;;;4.05;2.85;;;;;;;3.31;51.93652;96046.73;;;;
2021/03/31 03:30:23;;;;;;;4.05;2.85;;;;;;;3.31;51.93652;96046.73;;;;
2021/03/31 03:31:25;;;;;;;4.05;2.85;;;;;;;3.31;51.93652;96046.73;;;;
2021/03/31 03:32:27;;;;;;;4.05;2.85;;;;;;;3.31;51.93652;96046.73;;;;
2021/03/31 03:33:27;;;;;;;4.05;2.85;;;;;;;3.31;51.93652;96046.73;;;;
2021/03/31 03:34:29;;;;;;;5.35;2.95;;;;;;;3.27;51.77344;96050.36;;;;
2021/03/31 03:35:30;;;;;;;5.35;2.95;;;;;;;3.27;51.77344;96050.36;;;;
2021/03/31 03:36:31;;;;;;;5.35;2.95;;;;;;;3.27;51.77344;96050.36;;;;
2021/03/31 03:37:32;;;;;;;5.35;2.95;;;;;;;3.27;51.77344;96050.36;;;;
2021/03/31 03:38:32;;;;;;;5.35;2.95;;;;;;;3.27;51.77344;96050.36;;;;
2021/03/31 03:39:34;;;;;;;5.35;2.95;;;;;;;3.27;51.77344;96050.36;;;;
2021/03/31 03:40:35;;;;;;;5.35;2.95;;;;;;;3.27;51.77344;96050.36;;;;
2021/03/31 03:41:36;;;;;;;5.35;2.95;;;;;;;3.27;51.77344;96050.36;;;;
2021/03/31 03:42:36;;;;;;;5.35;2.95;;;;;;;3.27;51.77344;96050.36;;;;
2021/03/31 03:43:39;;;;;;;5.35;2.95;;;;;;;3.27;51.77344;96050.36;;;;
2021/03/31 03:44:40;;;;;;;4.950001;2.9;;;;;;;3.18;51.86719;96046.89;;;;
2021/03/31 03:45:41;;;;;;;4.950001;2.9;;;;;;;3.18;51.86719;96046.89;;;;
2021/03/31 03:46:43;;;;;;;4.950001;2.9;;;;;;;3.18;51.86719;96046.89;;;;
2021/03/31 03:47:48;;;;;;;4.950001;2.9;;;;;;;3.18;51.86719;96046.89;;;;
2021/03/31 03:48:49;;;;;;;4.950001;2.9;;;;;;;3.18;51.86719;96046.89;;;;
2021/03/31 03:49:49;;;;;;;4.950001;2.9;;;;;;;3.18;51.86719;96046.89;;;;
2021/03/31 03:50:50;;;;;;;4.950001;2.9;;;;;;;3.18;51.86719;96046.89;;;;
2021/03/31 03:51:51;;;;;;;4.950001;2.9;;;;;;;3.18;51.86719;96046.89;;;;
2021/03/31 03:52:52;;;;;;;4.950001;2.9;;;;;;;3.18;51.86719;96046.89;;;;
2021/03/31 03:53:53;;;;;;;4.950001;2.9;;;;;;;3.18;51.86719;96046.89;;;;
2021/03/31 03:54:54;;;;;;;4.950001;2.9;;;;;;;3.18;51.86719;96046.89;;;;
2021/03/31 03:55:56;;;;;;;6.599999;3.2;;;;;;;3;52.04688;96048.53;;;;
2021/03/31 03:56:59;;;;;;;6.599999;3.2;;;;;;;3;52.04688;96048.53;;;;
2021/03/31 03:57:59;;;;;;;6.599999;3.2;;;;;;;3;52.04688;96048.53;;;;
2021/03/31 03:59:06;;;;;;;6.599999;3.2;;;;;;;3;52.04688;96048.53;;;;
2021/03/31 04:00:24;;;;;;;6.599999;3.2;;;;;;;3;52.04688;96048.53;;;;
2021/03/31 04:01:24;;;;;;;6.599999;3.2;;;;;;;3;52.04688;96048.53;;;;
2021/03/31 04:02:25;;;;;;;6.599999;3.2;;;;;;;3;52.04688;96048.53;;;;
2021/03/31 04:03:26;;;;;;;6.599999;3.2;;;;;;;3;52.04688;96048.53;;;;
2021/03/31 04:04:26;;;;;;;6.599999;3.2;;;;;;;3;52.04688;96048.53;;;;
2021/03/31 04:05:27;;;;;;;6.599999;3.2;;;;;;;3;52.04688;96048.53;;;;
2021/03/31 04:06:27;;;;;;;5.8;3.35;;;;;;;2.83;52.31152;96051.73;;;;
2021/03/31 04:07:28;;;;;;;5.8;3.35;;;;;;;2.83;52.31152;96051.73;;;;
2021/03/31 04:08:28;;;;;;;5.8;3.35;;;;;;;2.83;52.31152;96051.73;;;;
2021/03/31 04:09:29;;;;;;;5.8;3.35;;;;;;;2.83;52.31152;96051.73;;;;
2021/03/31 04:10:30;;;;;;;5.8;3.35;;;;;;;2.83;52.31152;96051.73;;;;
2021/03/31 04:11:33;;;;;;;5.8;3.35;;;;;;;2.83;52.31152;96051.73;;;;
2021/03/31 04:12:37;;;;;;;5.8;3.35;;;;;;;2.83;52.31152;96051.73;;;;
2021/03/31 04:13:39;;;;;;;5.8;3.35;;;;;;;2.83;52.31152;96051.73;;;;
2021/03/31 04:14:40;;;;;;;5.8;3.35;;;;;;;2.83;52.31152;96051.73;;;;
2021/03/31 04:15:42;;;;;;;5.8;3.35;;;;;;;2.83;52.31152;96051.73;;;;
2021/03/31 04:16:45;;;;;;;5.400001;2.7;;;;;;;2.7;52.57227;96047.41;;;;
2021/03/31 04:17:48;;;;;;;5.400001;2.7;;;;;;;2.7;52.57227;96047.41;;;;
2021/03/31 04:18:51;;;;;;;5.400001;2.7;;;;;;;2.7;52.57227;96047.41;;;;
2021/03/31 04:19:52;;;;;;;5.400001;2.7;;;;;;;2.7;52.57227;96047.41;;;;
2021/03/31 04:20:53;;;;;;;5.400001;2.7;;;;;;;2.7;52.57227;96047.41;;;;
2021/03/31 04:21:57;;;;;;;5.400001;2.7;;;;;;;2.7;52.57227;96047.41;;;;
2021/03/31 04:22:58;;;;;;;5.400001;2.7;;;;;;;2.7;52.57227;96047.41;;;;
2021/03/31 04:23:58;;;;;;;5.400001;2.7;;;;;;;2.7;52.57227;96047.41;;;;
2021/03/31 04:24:59;;;;;;;5.400001;2.7;;;;;;;2.7;52.57227;96047.41;;;;
2021/03/31 04:26:00;;;;;;;5.400001;2.7;;;;;;;2.7;52.57227;96047.41;;;;
2021/03/31 04:27:01;;;;;;;5.400001;2.7;;;;;;;2.7;52.57227;96047.41;;;;
2021/03/31 04:28:02;;;;;;;5.749999;2.9;;;;;;;2.67;52.63086;96041.09;;;;
2021/03/31 04:29:06;;;;;;;5.749999;2.9;;;;;;;2.67;52.63086;96041.09;;;;
2021/03/31 04:30:08;;;;;;;5.749999;2.9;;;;;;;2.67;52.63086;96041.09;;;;
2021/03/31 04:31:11;;;;;;;5.749999;2.9;;;;;;;2.67;52.63086;96041.09;;;;
2021/03/31 04:32:12;;;;;;;5.749999;2.9;;;;;;;2.67;52.63086;96041.09;;;;
2021/03/31 04:33:14;;;;;;;5.749999;2.9;;;;;;;2.67;52.63086;96041.09;;;;
2021/03/31 04:34:16;;;;;;;5.749999;2.9;;;;;;;2.67;52.63086;96041.09;;;;
2021/03/31 04:35:18;;;;;;;5.749999;2.9;;;;;;;2.67;52.63086;96041.09;;;;
2021/03/31 04:36:20;;;;;;;5.749999;2.9;;;;;;;2.67;52.63086;96041.09;;;;
2021/03/31 04:37:21;;;;;;;5.749999;2.9;;;;;;;2.67;52.63086;96041.09;;;;
2021/03/31 04:38:22;;;;;;;8.550001;2.85;;;;;;;2.61;52.72949;96031.52;;;;
2021/03/31 04:39:22;;;;;;;8.550001;2.85;;;;;;;2.61;52.72949;96031.52;;;;
2021/03/31 04:40:23;;;;;;;8.550001;2.85;;;;;;;2.61;52.72949;96031.52;;;;
2021/03/31 04:41:23;;;;;;;8.550001;2.85;;;;;;;2.61;52.72949;96031.52;;;;
2021/03/31 04:42:24;;;;;;;8.550001;2.85;;;;;;;2.61;52.72949;96031.52;;;;
2021/03/31 04:43:25;;;;;;;8.550001;2.85;;;;;;;2.61;52.72949;96031.52;;;;
2021/03/31 04:44:28;;;;;;;8.550001;2.85;;;;;;;2.61;52.72949;96031.52;;;;
2021/03/31 04:45:28;;;;;;;8.550001;2.85;;;;;;;2.61;52.72949;96031.52;;;;
2021/03/31 04:46:29;;;;;;;8.550001;2.85;;;;;;;2.61;52.72949;96031.52;;;;
2021/03/31 04:47:29;;;;;;;8.550001;2.85;;;;;;;2.61;52.72949;96031.52;;;;
2021/03/31 04:48:31;;;;;;;7.300002;2.85;;;;;;;2.47;52.96582;96036.21;;;;
2021/03/31 04:49:32;;;;;;;7.300002;2.85;;;;;;;2.47;52.96582;96036.21;;;;
2021/03/31 04:50:32;;;;;;;7.300002;2.85;;;;;;;2.47;52.96582;96036.21;;;;
2021/03/31 04:51:33;;;;;;;7.300002;2.85;;;;;;;2.47;52.96582;96036.21;;;;
2021/03/31 04:52:34;;;;;;;7.300002;2.85;;;;;;;2.47;52.96582;96036.21;;;;
2021/03/31 04:53:35;;;;;;;7.300002;2.85;;;;;;;2.47;52.96582;96036.21;;;;
2021/03/31 04:54:35;;;;;;;7.300002;2.85;;;;;;;2.47;52.96582;96036.21;;;;
2021/03/31 04:55:36;;;;;;;7.300002;2.85;;;;;;;2.47;52.96582;96036.21;;;;
2021/03/31 04:56:36;;;;;;;7.300002;2.85;;;;;;;2.47;52.96582;96036.21;;;;
2021/03/31 04:57:37;;;;;;;7.300002;2.85;;;;;;;2.47;52.96582;96036.21;;;;
2021/03/31 04:58:37;;;;;;;7.300002;2.85;;;;;;;2.47;52.96582;96036.21;;;;
2021/03/31 04:59:38;;;;;;;5.35;3.05;;;;;;;2.45;53.16406;96032.03;;;;
2021/03/31 05:00:38;;;;;;;5.35;3.05;;;;;;;2.45;53.16406;96032.03;;;;
2021/03/31 05:01:39;;;;;;;5.35;3.05;;;;;;;2.45;53.16406;96032.03;;;;
2021/03/31 05:02:39;;;;;;;5.35;3.05;;;;;;;2.45;53.16406;96032.03;;;;
2021/03/31 05:03:40;;;;;;;5.35;3.05;;;;;;;2.45;53.16406;96032.03;;;;
2021/03/31 05:04:40;;;;;;;5.35;3.05;;;;;;;2.45;53.16406;96032.03;;;;
2021/03/31 05:05:41;;;;;;;5.35;3.05;;;;;;;2.45;53.16406;96032.03;;;;
2021/03/31 05:06:42;;;;;;;5.35;3.05;;;;;;;2.45;53.16406;96032.03;;;;
2021/03/31 05:07:42;;;;;;;5.35;3.05;;;;;;;2.45;53.16406;96032.03;;;;
2021/03/31 05:08:43;;;;;;;5.35;3.05;;;;;;;2.45;53.16406;96032.03;;;;
2021/03/31 05:09:43;;;;;;;5.35;3.05;;;;;;;2.45;53.16406;96032.03;;;;
2021/03/31 05:10:44;;;;;;;7.8;2.75;;;;;;;2.43;53.15137;96037.53;;;;
2021/03/31 05:11:45;;;;;;;7.8;2.75;;;;;;;2.43;53.15137;96037.53;;;;
2021/03/31 05:12:45;;;;;;;7.8;2.75;;;;;;;2.43;53.15137;96037.53;;;;
2021/03/31 05:13:46;;;;;;;7.8;2.75;;;;;;;2.43;53.15137;96037.53;;;;
2021/03/31 05:14:47;;;;;;;7.8;2.75;;;;;;;2.43;53.15137;96037.53;;;;
2021/03/31 05:15:47;;;;;;;7.8;2.75;;;;;;;2.43;53.15137;96037.53;;;;
2021/03/31 05:16:47;;;;;;;7.8;2.75;;;;;;;2.43;53.15137;96037.53;;;;
2021/03/31 05:17:48;;;;;;;7.8;2.75;;;;;;;2.43;53.15137;96037.53;;;;
2021/03/31 05:18:48;;;;;;;7.8;2.75;;;;;;;2.43;53.15137;96037.53;;;;
2021/03/31 05:19:49;;;;;;;7.8;2.75;;;;;;;2.43;53.15137;96037.53;;;;
2021/03/31 05:20:49;;;;;;;6.849999;3.1;;;;;;;2.48;53.23047;96040.12;;;;
2021/03/31 05:21:50;;;;;;;6.849999;3.1;;;;;;;2.48;53.23047;96040.12;;;;
2021/03/31 05:22:50;;;;;;;6.849999;3.1;;;;;;;2.48;53.23047;96040.12;;;;
2021/03/31 05:23:51;;;;;;;6.849999;3.1;;;;;;;2.48;53.23047;96040.12;;;;
2021/03/31 05:24:52;;;;;;;6.849999;3.1;;;;;;;2.48;53.23047;96040.12;;;;
2021/03/31 05:25:52;;;;;;;6.849999;3.1;;;;;;;2.48;53.23047;96040.12;;;;
2021/03/31 05:26:53;;;;;;;6.849999;3.1;;;;;;;2.48;53.23047;96040.12;;;;
2021/03/31 05:27:54;;;;;;;6.849999;3.1;;;;;;;2.48;53.23047;96040.12;;;;
2021/03/31 05:28:54;;;;;;;6.849999;3.1;;;;;;;2.48;53.23047;96040.12;;;;
2021/03/31 05:29:55;;;;;;;6.849999;3.1;;;;;;;2.48;53.23047;96040.12;;;;
2021/03/31 05:30:55;;;;;;;6.849999;3.1;;;;;;;2.48;53.23047;96040.12;;;;
2021/03/31 05:31:56;;;;;;;6.900001;2.8;;;;;;;2.58;53.31641;96037.27;;;;
2021/03/31 05:32:56;;;;;;;6.900001;2.8;;;;;;;2.58;53.31641;96037.27;;;;
2021/03/31 05:33:57;;;;;;;6.900001;2.8;;;;;;;2.58;53.31641;96037.27;;;;
2021/03/31 05:34:57;;;;;;;6.900001;2.8;;;;;;;2.58;53.31641;96037.27;;;;
2021/03/31 05:35:58;;;;;;;6.900001;2.8;;;;;;;2.58;53.31641;96037.27;;;;
2021/03/31 05:36:59;;;;;;;6.900001;2.8;;;;;;;2.58;53.31641;96037.27;;;;
2021/03/31 05:38:00;;;;;;;6.900001;2.8;;;;;;;2.58;53.31641;96037.27;;;;
2021/03/31 05:39:00;;;;;;;6.900001;2.8;;;;;;;2.58;53.31641;96037.27;;;;
2021/03/31 05:40:01;;;;;;;6.900001;2.8;;;;;;;2.58;53.31641;96037.27;;;;
2021/03/31 05:41:04;;;;;;;6.900001;2.8;;;;;;;2.58;53.31641;96037.27;;;;
2021/03/31 05:42:04;;;;;;;8.900001;3;;;;;;;2.76;53.5625;96031.66;;;;
2021/03/31 05:43:07;;;;;;;8.900001;3;;;;;;;2.76;53.5625;96031.66;;;;
2021/03/31 05:44:08;;;;;;;8.900001;3;;;;;;;2.76;53.5625;96031.66;;;;
2021/03/31 05:45:09;;;;;;;8.900001;3;;;;;;;2.76;53.5625;96031.66;;;;
2021/03/31 05:46:12;;;;;;;8.900001;3;;;;;;;2.76;53.5625;96031.66;;;;
2021/03/31 05:47:17;;;;;;;8.900001;3;;;;;;;2.76;53.5625;96031.66;;;;
2021/03/31 05:48:18;;;;;;;8.900001;3;;;;;;;2.76;53.5625;96031.66;;;;
2021/03/31 05:49:19;;;;;;;8.900001;3;;;;;;;2.76;53.5625;96031.66;;;;
2021/03/31 05:50:20;;;;;;;8.900001;3;;;;;;;2.76;53.5625;96031.66;;;;
2021/03/31 05:51:20;;;;;;;8.900001;3;;;;;;;2.76;53.5625;96031.66;;;;
2021/03/31 05:52:21;;;;;;;8.900001;3;;;;;;;2.76;53.5625;96031.66;;;;
2021/03/31 05:53:22;;;;;;;12.55;3.4;;;;;;;3.12;53.61621;96037.39;;;;